Time;durP1;ratioP1;P1;durP2;ratioP2;P2;SDS_P1;SDS_P2;PMS_P1;PMS_P2;Temp;Humidity;BMP_temperature;BMP_pressure;BME280_temperature;BME280_humidity;BME280_pressure;Samples;Min_cycle;Max_cycle;Signal;HPM_P1;HPM_P2
2022/08/03 00:01:25;;;;;;;17.65;3.28;;;20.20;99.90;;;;;;4992997;28;20069;-66
2022/08/03 00:03:50;;;;;;;13.63;2.53;;;20.30;99.90;;;;;;4991321;28;20037;-68
2022/08/03 00:06:16;;;;;;;17.52;4.43;;;20.30;99.90;;;;;;4992649;28;20033;-67
2022/08/03 00:08:41;;;;;;;16.83;3.28;;;20.30;99.90;;;;;;4992687;28;20041;-69
2022/08/03 00:11:07;;;;;;;13.20;3.08;;;20.30;99.90;;;;;;4992383;28;20042;-69
2022/08/03 00:13:33;;;;;;;15.63;3.20;;;20.20;99.90;;;;;;4992870;28;20448;-67
2022/08/03 00:15:58;;;;;;;16.45;3.83;;;20.20;99.90;;;;;;4993050;28;20097;-67
2022/08/03 00:18:24;;;;;;;14.35;3.70;;;20.20;99.90;;;;;;4992704;28;20097;-70
2022/08/03 00:20:49;;;;;;;19.65;4.18;;;20.20;99.90;;;;;;4992741;28;20033;-67
2022/08/03 00:23:15;;;;;;;21.35;6.35;;;20.20;99.90;;;;;;4992341;28;20061;-70
2022/08/03 00:25:41;;;;;;;16.92;3.45;;;20.20;99.90;;;;;;4992814;28;20018;-69
2022/08/03 00:28:07;;;;;;;16.20;4.55;;;20.20;99.90;;;;;;4991248;28;20650;-70
2022/08/03 00:30:33;;;;;;;14.50;2.95;;;20.20;99.90;;;;;;4992633;28;20087;-67
2022/08/03 00:32:59;;;;;;;20.45;4.28;;;20.20;99.90;;;;;;4992637;28;20457;-67
2022/08/03 00:35:24;;;;;;;12.45;4.25;;;20.20;99.90;;;;;;4992408;28;20061;-71
2022/08/03 00:37:50;;;;;;;19.73;5.20;;;20.20;99.90;;;;;;4992635;28;20030;-67
2022/08/03 00:40:17;;;;;;;13.38;3.30;;;20.10;99.90;;;;;;4992504;28;20069;-70
2022/08/03 00:42:50;;;;;;;21.25;3.92;;;20.10;99.90;;;;;;4992270;28;20337;-67
2022/08/03 00:45:17;;;;;;;19.25;4.22;;;20.10;99.90;;;;;;4995471;28;20026;-66
2022/08/03 00:47:43;;;;;;;14.10;3.45;;;20.10;99.90;;;;;;4995538;28;20039;-69
2022/08/03 00:50:09;;;;;;;14.77;3.50;;;20.10;99.90;;;;;;4994608;28;20353;-68
2022/08/03 00:52:35;;;;;;;17.20;4.10;;;20.10;99.90;;;;;;4995702;28;20039;-70
2022/08/03 00:55:02;;;;;;;14.50;3.33;;;20.10;99.90;;;;;;4995331;28;20023;-67
2022/08/03 00:57:30;;;;;;;16.65;3.72;;;20.00;99.90;;;;;;4995902;28;20753;-67
2022/08/03 00:59:56;;;;;;;14.60;3.70;;;20.00;99.90;;;;;;4995044;28;20029;-72
2022/08/03 01:02:22;;;;;;;16.13;3.40;;;20.00;99.90;;;;;;4995537;28;20026;-67
2022/08/03 01:04:47;;;;;;;18.88;3.40;;;20.00;99.90;;;;;;4995892;28;20034;-67
2022/08/03 01:07:31;;;;;;;16.58;3.78;;;20.00;99.90;;;;;;4994367;28;20033;-68
2022/08/03 01:10:02;;;;;;;18.33;3.38;;;19.90;99.90;;;;;;4995672;28;20080;-66
2022/08/03 01:12:50;;;;;;;15.90;3.45;;;19.90;99.90;;;;;;4994788;28;20384;-66
2022/08/03 01:15:43;;;;;;;15.35;3.78;;;19.90;99.90;;;;;;4995415;28;20022;-66
2022/08/03 01:18:34;;;;;;;15.77;3.53;;;19.90;99.90;;;;;;4995402;28;20026;-67
2022/08/03 01:21:06;;;;;;;16.10;3.33;;;19.80;99.90;;;;;;4994969;28;20035;-68
2022/08/03 01:23:50;;;;;;;;;;;19.80;99.90;;;;;;4995785;28;20057;-70
2022/08/03 01:26:57;;;;;;;16.73;4.32;;;19.80;99.90;;;;;;4994952;28;19901;-70
2022/08/03 01:29:47;;;;;;;18.48;4.07;;;19.80;99.90;;;;;;4982889;28;20128;-68
2022/08/03 01:32:17;;;;;;;14.35;3.47;;;19.70;99.90;;;;;;4995079;28;20042;-67
2022/08/03 01:34:51;;;;;;;16.70;3.08;;;19.70;99.90;;;;;;4995263;28;20030;-67
2022/08/03 01:37:23;;;;;;;19.42;3.33;;;19.70;99.90;;;;;;4994678;28;20089;-69
2022/08/03 01:39:54;;;;;;;15.55;3.25;;;19.70;99.90;;;;;;4994844;28;20105;-68
2022/08/03 01:42:21;;;;;;;14.27;3.45;;;19.60;99.90;;;;;;4994556;28;20023;-70
2022/08/03 01:44:49;;;;;;;11.65;3.33;;;19.60;99.90;;;;;;4994636;28;20050;-67
2022/08/03 01:47:19;;;;;;;17.15;3.00;;;19.60;99.90;;;;;;4994406;28;20046;-67
2022/08/03 01:49:46;;;;;;;20.40;4.25;;;19.60;99.90;;;;;;4993239;28;20372;-68
2022/08/03 01:52:16;;;;;;;14.93;3.28;;;19.50;99.90;;;;;;4994623;28;20511;-67
2022/08/03 01:54:45;;;;;;;18.13;4.35;;;19.50;99.90;;;;;;4993941;28;20038;-67
2022/08/03 01:57:12;;;;;;;17.30;4.57;;;19.50;99.90;;;;;;4994299;28;20037;-70
2022/08/03 01:59:40;;;;;;;17.17;3.78;;;19.50;99.90;;;;;;4994440;28;20105;-67
2022/08/03 02:02:07;;;;;;;12.55;3.20;;;19.50;99.90;;;;;;4994448;28;20026;-68
2022/08/03 02:04:34;;;;;;;19.13;4.10;;;19.50;99.90;;;;;;4994418;28;20030;-70
2022/08/03 02:07:01;;;;;;;15.80;3.53;;;19.50;99.90;;;;;;4994116;28;20483;-67
2022/08/03 02:09:28;;;;;;;13.68;3.50;;;19.40;99.90;;;;;;4994250;28;20022;-66
2022/08/03 02:11:56;;;;;;;19.08;3.78;;;19.40;99.90;;;;;;4993910;28;20041;-69
2022/08/03 02:14:23;;;;;;;17.40;4.20;;;19.40;99.90;;;;;;4994321;28;20026;-67
2022/08/03 02:16:50;;;;;;;16.65;3.45;;;19.40;99.90;;;;;;4993938;28;20097;-69
2022/08/03 02:19:17;;;;;;;18.48;4.32;;;19.30;99.90;;;;;;4994345;28;20031;-71
2022/08/03 02:21:45;;;;;;;20.00;4.15;;;19.30;99.90;;;;;;4994385;28;20026;-69
2022/08/03 02:24:11;;;;;;;16.42;3.75;;;19.30;99.90;;;;;;4994190;28;20025;-69
2022/08/03 02:26:38;;;;;;;17.30;3.72;;;19.30;99.90;;;;;;4994136;28;20026;-70
2022/08/03 02:29:10;;;;;;;15.43;3.40;;;19.30;99.90;;;;;;4994037;28;20045;-71
2022/08/03 02:31:37;;;;;;;16.65;4.18;;;19.30;99.90;;;;;;4993914;28;20064;-70
2022/08/03 02:34:08;;;;;;;14.35;2.85;;;19.30;99.90;;;;;;4993810;28;20460;-70
2022/08/03 02:36:36;;;;;;;15.05;3.70;;;19.30;99.90;;;;;;4993664;28;20029;-67
2022/08/03 02:39:04;;;;;;;17.05;3.97;;;19.20;99.90;;;;;;4993941;28;20038;-68
2022/08/03 02:41:40;;;;;;;15.68;3.60;;;19.20;99.90;;;;;;4993464;28;20420;-68
2022/08/03 02:44:08;;;;;;;14.43;3.53;;;19.20;99.90;;;;;;4993691;28;20027;-69
2022/08/03 02:46:37;;;;;;;16.70;3.95;;;19.10;99.90;;;;;;4993399;28;20372;-72
2022/08/03 02:49:04;;;;;;;14.15;4.05;;;19.10;99.90;;;;;;4993770;28;20050;-67
2022/08/03 02:51:32;;;;;;;13.23;3.50;;;19.10;99.90;;;;;;4993119;28;20038;-70
2022/08/03 02:54:01;;;;;;;14.50;3.55;;;19.10;99.90;;;;;;4993494;28;20085;-68
2022/08/03 02:56:28;;;;;;;14.05;3.45;;;19.10;99.90;;;;;;4993516;28;20026;-69
2022/08/03 02:58:55;;;;;;;11.40;3.53;;;19.10;99.90;;;;;;4993455;28;20061;-68
2022/08/03 03:01:23;;;;;;;16.17;3.45;;;19.00;99.90;;;;;;4993442;28;20026;-69
2022/08/03 03:03:51;;;;;;;19.92;4.10;;;19.00;99.90;;;;;;4993732;28;20117;-68
2022/08/03 03:06:18;;;;;;;14.73;3.58;;;19.00;99.90;;;;;;4992718;28;20093;-66
2022/08/03 03:08:45;;;;;;;13.15;4.45;;;18.90;99.90;;;;;;4993483;28;20394;-69
2022/08/03 03:11:14;;;;;;;16.45;3.80;;;18.90;99.90;;;;;;4993075;28;20053;-69
2022/08/03 03:13:43;;;;;;;9.25;3.25;;;18.90;99.90;;;;;;4993055;28;20460;-66
2022/08/03 03:16:12;;;;;;;16.80;3.60;;;18.90;99.90;;;;;;4993133;28;20057;-69
2022/08/03 03:18:38;;;;;;;15.88;3.92;;;18.90;99.90;;;;;;4993254;28;20018;-67
2022/08/03 03:21:07;;;;;;;15.82;4.20;;;18.80;99.90;;;;;;4993462;28;20057;-68
2022/08/03 03:23:36;;;;;;;14.25;3.42;;;18.90;99.90;;;;;;4993076;28;20088;-68
2022/08/03 03:26:02;;;;;;;10.30;3.42;;;18.80;99.90;;;;;;4993141;28;20030;-70
2022/08/03 03:28:30;;;;;;;15.70;3.95;;;18.80;99.90;;;;;;4993051;28;20030;-71
2022/08/03 03:30:56;;;;;;;19.13;4.32;;;18.70;99.90;;;;;;4992686;28;20122;-67
2022/08/03 03:33:23;;;;;;;14.07;3.80;;;18.70;99.90;;;;;;4993149;28;20475;-66
2022/08/03 03:35:50;;;;;;;16.75;4.35;;;18.70;99.90;;;;;;4992877;28;20022;-66
2022/08/03 03:38:16;;;;;;;17.05;3.97;;;18.70;99.90;;;;;;4993061;28;20467;-67
2022/08/03 03:40:42;;;;;;;14.60;4.10;;;18.70;99.90;;;;;;4993059;28;20022;-66
2022/08/03 03:43:09;;;;;;;19.27;4.35;;;18.70;99.90;;;;;;4993192;28;20080;-67
2022/08/03 03:45:35;;;;;;;16.02;4.22;;;18.70;99.90;;;;;;4993119;28;20121;-66
2022/08/03 03:48:03;;;;;;;13.65;3.58;;;18.70;99.90;;;;;;4992646;28;20049;-68
2022/08/03 03:50:33;;;;;;;12.57;3.78;;;18.70;99.90;;;;;;4992376;28;20468;-66
2022/08/03 03:52:58;;;;;;;17.00;3.72;;;18.70;99.90;;;;;;4992482;28;20042;-66
2022/08/03 03:55:24;;;;;;;13.85;3.67;;;18.70;99.90;;;;;;4992684;28;20077;-68
2022/08/03 03:57:50;;;;;;;20.20;4.53;;;18.70;99.90;;;;;;4992823;28;20102;-68
2022/08/03 04:00:17;;;;;;;17.17;4.13;;;18.70;99.90;;;;;;4992904;28;20341;-69
2022/08/03 04:02:43;;;;;;;16.50;3.88;;;18.70;99.90;;;;;;4992379;28;20026;-68
2022/08/03 04:10:59;;;;;;;15.83;4.10;;;18.70;99.90;;;;;;4992807;28;20379;-68
2022/08/03 04:13:46;;;;;;;14.43;3.75;;;18.70;99.90;;;;;;4992740;28;20160;-71
2022/08/03 04:16:14;;;;;;;19.90;4.55;;;18.70;99.90;;;;;;4992617;28;20030;-68
2022/08/03 04:18:42;;;;;;;18.05;4.45;;;18.70;99.90;;;;;;4993468;28;20105;-68
2022/08/03 04:21:11;;;;;;;13.02;4.28;;;18.70;99.90;;;;;;4996531;28;20106;-68
2022/08/03 04:23:40;;;;;;;16.10;3.95;;;18.80;99.90;;;;;;4996335;28;20054;-68
2022/08/03 04:26:08;;;;;;;15.82;4.63;;;18.80;99.90;;;;;;4995819;28;20101;-72
2022/08/03 04:28:36;;;;;;;16.83;3.72;;;18.80;99.90;;;;;;4995800;28;20361;-68
2022/08/03 04:31:05;;;;;;;13.73;4.20;;;18.80;99.90;;;;;;4995910;28;20039;-68
2022/08/03 04:33:32;;;;;;;24.27;4.43;;;18.90;99.90;;;;;;4996052;28;20027;-69
2022/08/03 04:36:00;;;;;;;14.55;3.80;;;18.90;99.90;;;;;;4995983;28;20030;-68
2022/08/03 04:38:28;;;;;;;15.30;4.13;;;18.80;99.90;;;;;;4995837;28;20369;-70
2022/08/03 04:40:55;;;;;;;18.08;4.97;;;18.90;99.90;;;;;;4995851;28;20022;-67
2022/08/03 04:43:22;;;;;;;18.23;4.55;;;18.90;99.90;;;;;;4996206;28;20045;-67
2022/08/03 04:45:49;;;;;;;11.82;3.60;;;18.90;99.90;;;;;;4996030;28;20026;-67
2022/08/03 04:48:14;;;;;;;12.40;4.30;;;18.90;99.90;;;;;;4995622;28;20054;-67
2022/08/03 04:50:41;;;;;;;14.55;3.90;;;18.90;99.90;;;;;;4995650;28;20432;-67
2022/08/03 04:53:07;;;;;;;11.07;3.90;;;19.00;99.90;;;;;;4995079;28;20424;-70
2022/08/03 04:55:34;;;;;;;16.65;4.75;;;19.00;99.90;;;;;;4995643;28;20022;-67
2022/08/03 04:58:00;;;;;;;14.77;3.80;;;19.10;99.90;;;;;;4995471;28;20023;-68
2022/08/03 05:00:27;;;;;;;18.17;4.30;;;19.20;99.90;;;;;;4995484;28;20033;-67
2022/08/03 05:02:53;;;;;;;19.17;3.85;;;19.30;99.90;;;;;;4995872;28;20022;-71
2022/08/03 05:05:19;;;;;;;7.90;3.40;;;19.40;99.90;;;;;;4995957;28;20105;-67
2022/08/03 05:07:45;;;;;;;17.55;3.78;;;19.50;99.90;;;;;;4994148;28;20050;-69
2022/08/03 05:10:11;;;;;;;10.77;3.38;;;19.60;99.90;;;;;;4995965;28;20069;-67
2022/08/03 05:12:37;;;;;;;13.60;3.45;;;19.60;99.90;;;;;;4995668;28;20038;-68
2022/08/03 05:15:04;;;;;;;11.35;3.35;;;19.60;99.90;;;;;;4995640;28;20076;-67
2022/08/03 05:17:29;;;;;;;12.48;4.00;;;19.60;99.90;;;;;;4994124;28;20023;-68
2022/08/03 05:19:55;;;;;;;15.77;4.20;;;19.60;99.90;;;;;;4995841;28;20037;-73
2022/08/03 05:22:21;;;;;;;12.82;3.63;;;19.70;99.90;;;;;;4993907;28;20033;-71
2022/08/03 05:24:47;;;;;;;14.93;3.35;;;19.70;99.90;;;;;;4995382;28;20025;-68
2022/08/03 05:27:18;;;;;;;12.63;3.53;;;19.80;99.90;;;;;;4995393;28;20033;-67
2022/08/03 05:29:44;;;;;;;16.05;4.10;;;19.90;99.90;;;;;;4995156;28;20025;-69
2022/08/03 05:32:09;;;;;;;13.95;3.53;;;19.90;99.90;;;;;;4995175;28;20031;-68
2022/08/03 05:34:35;;;;;;;16.17;3.85;;;20.00;99.90;;;;;;4995339;28;20033;-68
2022/08/03 05:37:00;;;;;;;13.88;3.63;;;20.00;99.90;;;;;;4995023;28;20514;-70
2022/08/03 05:39:26;;;;;;;9.95;3.85;;;20.10;99.90;;;;;;4995144;28;20033;-67
2022/08/03 05:41:52;;;;;;;9.88;3.25;;;20.20;99.90;;;;;;4995080;28;20023;-67
2022/08/03 05:44:17;;;;;;;19.20;4.18;;;20.30;99.90;;;;;;4994869;28;20072;-67
2022/08/03 05:46:43;;;;;;;14.57;3.58;;;20.40;99.90;;;;;;4994888;28;20113;-69
2022/08/03 05:49:08;;;;;;;15.95;3.45;;;20.60;99.90;;;;;;4995135;28;20054;-69
2022/08/03 05:51:35;;;;;;;15.40;4.13;;;20.80;99.90;;;;;;4994667;28;20068;-68
2022/08/03 05:54:01;;;;;;;12.52;3.40;;;21.00;99.90;;;;;;4994877;28;20019;-67
2022/08/03 05:56:27;;;;;;;15.68;3.72;;;21.20;99.90;;;;;;4994774;28;20510;-67
2022/08/03 05:58:53;;;;;;;13.52;3.28;;;21.30;99.90;;;;;;4994611;28;20030;-67
2022/08/03 06:01:22;;;;;;;17.40;3.50;;;21.40;99.90;;;;;;4988837;28;20373;-70
2022/08/03 06:03:48;;;;;;;15.77;3.65;;;21.40;99.90;;;;;;4975277;28;20022;-67
2022/08/03 06:06:14;;;;;;;18.88;4.18;;;21.40;99.90;;;;;;4975210;28;20026;-69
2022/08/03 06:08:41;;;;;;;17.65;3.55;;;21.40;99.90;;;;;;4975270;28;20049;-71
2022/08/03 06:11:07;;;;;;;20.33;3.95;;;21.50;99.90;;;;;;4975129;28;20038;-69
2022/08/03 06:13:33;;;;;;;18.17;4.05;;;21.70;99.90;;;;;;4975272;28;20069;-72
2022/08/03 06:15:58;;;;;;;13.15;3.17;;;22.00;99.90;;;;;;4975041;28;20019;-68
2022/08/03 06:18:24;;;;;;;19.48;4.30;;;22.30;99.90;;;;;;4973463;28;20063;-71
2022/08/03 06:20:51;;;;;;;14.77;3.95;;;22.60;99.90;;;;;;4975069;28;20059;-68
2022/08/03 06:23:17;;;;;;;16.40;3.45;;;23.10;99.90;;;;;;4974682;28;20035;-67
2022/08/03 06:25:42;;;;;;;21.83;3.65;;;23.40;99.90;;;;;;4973518;28;20015;-68
2022/08/03 06:28:08;;;;;;;16.17;3.40;;;23.40;99.90;;;;;;4974168;28;20029;-67
2022/08/03 06:30:35;;;;;;;19.77;3.55;;;23.40;99.90;;;;;;4974567;28;20055;-72
2022/08/03 06:33:00;;;;;;;12.88;3.60;;;23.40;99.90;;;;;;4974391;28;20038;-70
2022/08/03 06:35:26;;;;;;;15.35;3.38;;;23.70;99.90;;;;;;4974753;28;20105;-66
2022/08/03 06:37:53;;;;;;;16.40;3.35;;;24.30;99.90;;;;;;4973122;28;20085;-67
2022/08/03 06:40:30;;;;;;;14.98;3.45;;;24.70;99.90;;;;;;4974155;28;20417;-68
2022/08/03 06:43:00;;;;;;;19.95;4.05;;;25.10;99.90;;;;;;4973882;28;20022;-68
2022/08/03 06:45:27;;;;;;;23.65;5.65;;;25.40;99.90;;;;;;4974148;28;20035;-68
2022/08/03 06:48:07;;;;;;;15.40;3.33;;;25.60;99.90;;;;;;4973757;28;20469;-70
2022/08/03 06:50:34;;;;;;;17.00;3.67;;;25.80;99.90;;;;;;4974251;28;20023;-68
2022/08/03 06:53:01;;;;;;;19.17;4.05;;;25.80;99.90;;;;;;4973889;28;20459;-70
2022/08/03 06:55:26;;;;;;;14.80;3.20;;;25.70;99.90;;;;;;4972963;28;20023;-68
2022/08/03 06:57:52;;;;;;;21.13;3.17;;;25.60;99.90;;;;;;4974173;28;20023;-66
2022/08/03 07:00:18;;;;;;;19.52;3.00;;;25.40;99.90;;;;;;4974203;28;20033;-66
2022/08/03 07:02:44;;;;;;;21.00;3.67;;;25.50;99.90;;;;;;4974443;28;20027;-66
2022/08/03 07:05:09;;;;;;;14.90;3.22;;;25.60;99.90;;;;;;4972982;28;20022;-70
2022/08/03 07:07:36;;;;;;;19.10;3.25;;;26.10;99.90;;;;;;4972445;28;20035;-68
2022/08/03 07:10:02;;;;;;;12.05;3.10;;;26.50;99.90;;;;;;4979135;28;20018;-68
2022/08/03 07:12:29;;;;;;;19.15;3.28;;;26.70;99.90;;;;;;4990146;28;20074;-66
2022/08/03 07:14:55;;;;;;;20.52;2.97;;;26.70;99.90;;;;;;4985732;28;20050;-70
2022/08/03 07:17:22;;;;;;;13.82;3.40;;;26.80;99.90;;;;;;4986213;28;20038;-67
2022/08/03 07:19:47;;;;;;;18.60;3.75;;;27.30;99.90;;;;;;4987305;28;20354;-67
2022/08/03 07:22:13;;;;;;;16.95;3.20;;;27.20;99.90;;;;;;4983755;28;20456;-69
2022/08/03 07:24:38;;;;;;;20.98;3.40;;;27.00;99.90;;;;;;4983525;28;20462;-67
2022/08/03 07:27:04;;;;;;;10.70;2.33;;;26.60;99.90;;;;;;4989999;28;20033;-70
2022/08/03 07:29:29;;;;;;;19.10;3.35;;;26.20;99.90;;;;;;4980280;28;20033;-70
2022/08/03 07:31:55;;;;;;;19.20;3.33;;;26.10;99.90;;;;;;4973846;28;20038;-70
2022/08/03 07:34:21;;;;;;;19.77;3.05;;;25.90;99.90;;;;;;4973466;28;20031;-67
2022/08/03 07:36:46;;;;;;;19.33;3.45;;;25.70;99.90;;;;;;4970914;28;20393;-67
2022/08/03 07:39:12;;;;;;;15.52;3.30;;;25.90;99.90;;;;;;4971846;28;20022;-67
2022/08/03 07:41:37;;;;;;;12.13;2.72;;;25.90;99.90;;;;;;4971088;28;20105;-71
2022/08/03 07:44:03;;;;;;;19.80;3.88;;;26.00;99.90;;;;;;4973511;28;20027;-67
2022/08/03 07:46:29;;;;;;;17.58;3.13;;;26.00;99.90;;;;;;4973760;28;20037;-67
2022/08/03 07:48:54;;;;;;;18.02;3.63;;;26.30;99.90;;;;;;4973719;28;20065;-68
2022/08/03 07:51:20;;;;;;;17.13;3.40;;;26.60;99.90;;;;;;4973514;28;20039;-67
2022/08/03 07:53:45;;;;;;;14.52;2.90;;;26.40;99.90;;;;;;4976397;28;20125;-67
2022/08/03 07:56:11;;;;;;;17.73;3.20;;;26.20;99.90;;;;;;4977213;28;20023;-68
2022/08/03 07:58:36;;;;;;;23.35;3.13;;;26.20;99.90;;;;;;4976850;28;20421;-69
2022/08/03 08:01:02;;;;;;;14.50;2.80;;;26.20;99.90;;;;;;4977419;28;20412;-67
2022/08/03 08:03:28;;;;;;;13.05;2.33;;;26.30;99.90;;;;;;4976664;28;20023;-67
2022/08/03 08:05:53;;;;;;;21.42;3.80;;;26.20;99.90;;;;;;4977660;28;20091;-66
2022/08/03 08:08:19;;;;;;;19.20;3.30;;;26.10;99.90;;;;;;4975475;28;20037;-67
2022/08/03 08:10:46;;;;;;;21.30;4.22;;;25.90;99.90;;;;;;4976817;28;20031;-67
2022/08/03 08:13:11;;;;;;;18.38;3.88;;;26.00;99.90;;;;;;4975720;28;20111;-68
2022/08/03 08:15:37;;;;;;;32.15;6.10;;;25.90;99.90;;;;;;4977447;28;20066;-70
2022/08/03 08:18:03;;;;;;;11.68;3.22;;;26.00;99.90;;;;;;4977162;28;20038;-68
2022/08/03 08:20:32;;;;;;;18.73;4.88;;;25.90;99.90;;;;;;4977199;28;20029;-70
2022/08/03 08:23:08;;;;;;;16.90;4.15;;;25.90;99.90;;;;;;4977421;28;20031;-68
2022/08/03 08:25:34;;;;;;;14.35;3.60;;;25.80;99.90;;;;;;4971903;28;20030;-67
2022/08/03 08:28:03;;;;;;;13.50;3.20;;;25.60;99.90;;;;;;4973922;28;20019;-68
2022/08/03 08:30:30;;;;;;;14.40;3.20;;;25.60;99.90;;;;;;4975202;28;20361;-68
2022/08/03 08:32:56;;;;;;;19.85;3.88;;;25.80;99.90;;;;;;4976347;28;20125;-70
2022/08/03 08:35:22;;;;;;;14.70;3.65;;;25.80;99.90;;;;;;4976504;28;20025;-67
2022/08/03 08:37:48;;;;;;;19.17;4.10;;;25.80;99.90;;;;;;4976516;28;20026;-68
2022/08/03 08:40:13;;;;;;;17.33;3.83;;;25.90;99.90;;;;;;4976692;28;20085;-69
2022/08/03 08:42:41;;;;;;;15.32;2.83;;;26.20;99.90;;;;;;4976866;28;20023;-67
2022/08/03 08:45:08;;;;;;;13.88;2.88;;;26.60;99.90;;;;;;4975663;28;20019;-67
2022/08/03 08:47:38;;;;;;;13.13;3.03;;;26.70;99.90;;;;;;4976452;28;20492;-66
2022/08/03 08:50:10;;;;;;;16.10;2.88;;;27.20;99.90;;;;;;4976178;28;20042;-70
2022/08/03 08:52:42;;;;;;;15.50;3.15;;;27.30;99.90;;;;;;4976576;28;20453;-67
2022/08/03 08:55:13;;;;;;;12.07;2.80;;;27.40;99.90;;;;;;4975211;28;20110;-67
2022/08/03 08:57:49;;;;;;;17.85;4.05;;;27.70;99.90;;;;;;4976303;28;20034;-67
2022/08/03 09:00:15;;;;;;;18.98;4.18;;;28.30;99.90;;;;;;4976260;28;20564;-68
2022/08/03 09:02:43;;;;;;;15.77;3.88;;;29.10;99.70;;;;;;4976403;28;20666;-70
2022/08/03 09:05:17;;;;;;;16.98;3.78;;;29.40;99.10;;;;;;4975089;28;20023;-70
2022/08/03 09:07:43;;;;;;;25.38;5.20;;;29.60;98.60;;;;;;4976561;28;20035;-71
2022/08/03 09:10:11;;;;;;;18.42;3.97;;;29.70;98.60;;;;;;4976171;28;20500;-69
2022/08/03 09:12:48;;;;;;;24.25;4.25;;;29.70;98.50;;;;;;4975691;28;20074;-68
2022/08/03 09:15:30;;;;;;;16.60;3.70;;;29.90;98.30;;;;;;4976393;28;20031;-69
2022/08/03 09:17:57;;;;;;;16.42;4.13;;;30.20;97.60;;;;;;4975740;28;20031;-68
2022/08/03 09:20:25;;;;;;;19.63;5.47;;;30.60;97.50;;;;;;4976075;28;20022;-68
2022/08/03 09:22:55;;;;;;;16.27;2.63;;;31.10;96.70;;;;;;4975877;28;20034;-67
2022/08/03 09:25:35;;;;;;;18.88;3.30;;;31.70;95.70;;;;;;4975956;28;20026;-67
2022/08/03 09:28:08;;;;;;;15.95;3.50;;;32.30;95.10;;;;;;4976085;28;20511;-72
2022/08/03 09:30:35;;;;;;;17.48;3.75;;;33.00;93.90;;;;;;4975879;28;20031;-69
2022/08/03 09:33:02;;;;;;;19.58;4.30;;;33.60;93.00;;;;;;4975765;28;20073;-69
2022/08/03 09:35:28;;;;;;;16.35;3.08;;;34.00;92.50;;;;;;4973733;28;20054;-70
2022/08/03 09:38:14;;;;;;;16.77;3.30;;;34.40;91.80;;;;;;4975946;28;20069;-73
2022/08/03 09:40:40;;;;;;;17.17;3.00;;;34.80;90.80;;;;;;4975290;28;20110;-70
2022/08/03 09:43:07;;;;;;;13.90;3.53;;;34.80;90.60;;;;;;4975275;28;20023;-68
2022/08/03 09:45:37;;;;;;;11.68;2.47;;;35.30;90.20;;;;;;4975277;28;20413;-69
2022/08/03 09:48:26;;;;;;;13.98;2.90;;;35.70;88.50;;;;;;4974466;28;20058;-66
2022/08/03 09:50:54;;;;;;;15.13;3.00;;;35.00;89.80;;;;;;4974060;28;20046;-67
2022/08/03 09:53:20;;;;;;;15.20;3.13;;;35.20;89.10;;;;;;4975432;28;20110;-71
2022/08/03 09:56:01;;;;;;;16.90;2.92;;;35.60;88.10;;;;;;4975667;28;20038;-69
2022/08/03 09:58:29;;;;;;;11.93;2.70;;;36.40;86.20;;;;;;4975012;28;20045;-72
2022/08/03 10:01:03;;;;;;;15.57;3.15;;;36.70;84.70;;;;;;4975283;28;20035;-69
2022/08/03 10:03:31;;;;;;;15.45;3.22;;;36.90;84.10;;;;;;4975285;28;20035;-67
2022/08/03 10:05:57;;;;;;;14.98;2.75;;;37.20;83.20;;;;;;4974589;28;20479;-68
2022/08/03 10:08:23;;;;;;;16.95;2.67;;;37.40;81.90;;;;;;4975106;28;20018;-67
2022/08/03 10:10:52;;;;;;;15.02;3.03;;;37.20;81.40;;;;;;4974718;28;20030;-69
2022/08/03 10:13:19;;;;;;;13.98;2.55;;;36.90;81.80;;;;;;4973647;28;20030;-67
2022/08/03 10:15:45;;;;;;;15.07;3.40;;;36.90;81.90;;;;;;4971559;28;20030;-68
2022/08/03 10:18:11;;;;;;;12.60;2.65;;;37.10;81.20;;;;;;4972139;28;20499;-71
2022/08/03 10:20:44;;;;;;;18.02;3.40;;;37.00;81.50;;;;;;4973875;28;20019;-67
2022/08/03 10:23:10;;;;;;;18.85;3.95;;;37.20;80.80;;;;;;4973515;28;20019;-71
2022/08/03 10:25:39;;;;;;;17.80;3.05;;;37.60;80.10;;;;;;4973739;28;20775;-71
2022/08/03 10:28:06;;;;;;;13.75;3.20;;;37.80;79.70;;;;;;4968300;28;20102;-68
2022/08/03 10:30:34;;;;;;;23.42;5.60;;;37.90;79.20;;;;;;4972960;28;20473;-71
2022/08/03 10:33:11;;;;;;;19.20;4.30;;;38.00;78.60;;;;;;4974221;28;20043;-70
2022/08/03 10:35:38;;;;;;;22.40;6.22;;;37.80;78.60;;;;;;4974548;28;20034;-69
2022/08/03 10:38:10;;;;;;;18.50;3.75;;;37.80;78.50;;;;;;4973449;28;20030;-67
2022/08/03 10:40:37;;;;;;;15.15;2.78;;;37.80;78.00;;;;;;4974758;28;20050;-71
2022/08/03 10:43:08;;;;;;;16.75;2.80;;;37.80;77.70;;;;;;4973061;28;20030;-71
2022/08/03 10:45:38;;;;;;;14.20;3.00;;;37.50;78.10;;;;;;4974487;28;20019;-67
2022/08/03 10:58:39;;;;;;;15.85;3.38;;;37.00;78.90;;;;;;5109760;27;20493;-68
2022/08/03 11:01:07;;;;;;;14.98;2.70;;;37.20;78.50;;;;;;5110317;28;20101;-67
2022/08/03 11:03:53;;;;;;;14.35;2.83;;;37.40;78.10;;;;;;5110170;28;20449;-72
2022/08/03 11:06:21;;;;;;;17.58;2.75;;;37.50;77.50;;;;;;5109291;28;20039;-70
2022/08/03 11:08:48;;;;;;;14.70;2.50;;;37.20;78.00;;;;;;5110002;28;20020;-70
2022/08/03 11:11:16;;;;;;;16.75;3.15;;;37.60;77.50;;;;;;5110003;28;20027;-70
2022/08/03 11:14:02;;;;;;;16.63;2.90;;;37.90;76.50;;;;;;5109569;28;20020;-66
2022/08/03 11:16:28;;;;;;;15.05;2.90;;;37.50;77.30;;;;;;5109698;28;20016;-68
2022/08/03 11:18:59;;;;;;;15.18;2.85;;;37.20;77.80;;;;;;5109744;28;20024;-67
2022/08/03 11:21:48;;;;;;;14.43;2.70;;;37.00;78.00;;;;;;5097355;28;20023;-69
2022/08/03 11:24:35;;;;;;;15.77;3.10;;;37.00;77.80;;;;;;5101884;28;20036;-67
2022/08/03 11:27:20;;;;;;;9.85;2.40;;;36.90;77.80;;;;;;5109334;28;20040;-71
2022/08/03 11:30:21;;;;;;;10.90;2.63;;;37.00;77.80;;;;;;5109710;28;20051;-67
2022/08/03 11:32:47;;;;;;;17.23;3.17;;;36.40;78.40;;;;;;5109443;28;20074;-67
2022/08/03 11:35:19;;;;;;;12.32;2.40;;;36.10;79.00;;;;;;5109559;28;20413;-69
2022/08/03 11:37:53;;;;;;;13.90;3.22;;;35.80;79.20;;;;;;5109720;28;20034;-67
2022/08/03 11:40:44;;;;;;;18.08;3.00;;;35.80;79.60;;;;;;5109498;28;20051;-67
2022/08/03 11:43:22;;;;;;;10.35;2.20;;;35.90;79.10;;;;;;5109085;28;20419;-66
2022/08/03 11:46:06;;;;;;;12.73;2.85;;;35.30;80.10;;;;;;5109005;28;20023;-66
2022/08/03 11:48:35;;;;;;;13.05;2.70;;;35.30;81.00;;;;;;5109343;28;20016;-68
2022/08/03 11:51:01;;;;;;;17.08;3.63;;;35.80;80.30;;;;;;5109244;28;20473;-71
2022/08/03 11:53:27;;;;;;;14.40;2.65;;;36.00;79.60;;;;;;5109254;28;20024;-67
2022/08/03 11:55:57;;;;;;;14.18;2.78;;;36.00;79.30;;;;;;5109263;28;20418;-67
2022/08/03 11:58:23;;;;;;;18.23;3.15;;;36.10;79.30;;;;;;5101695;28;20503;-71
2022/08/03 12:00:49;;;;;;;15.38;2.97;;;36.10;79.10;;;;;;5080474;28;20091;-67
2022/08/03 12:03:17;;;;;;;19.02;3.33;;;36.60;78.50;;;;;;5088083;28;20107;-67
2022/08/03 12:05:47;;;;;;;17.75;3.58;;;36.40;78.60;;;;;;5095126;28;20022;-68
2022/08/03 12:08:14;;;;;;;20.80;3.20;;;36.00;78.80;;;;;;5095321;28;20055;-68
2022/08/03 12:10:46;;;;;;;17.02;3.13;;;36.10;79.40;;;;;;5095140;28;20028;-68
2022/08/03 12:13:12;;;;;;;14.25;2.53;;;36.60;78.90;;;;;;5084001;28;20082;-69
2022/08/03 12:15:37;;;;;;;14.27;2.75;;;37.10;78.20;;;;;;5087493;28;20428;-68
2022/08/03 12:18:12;;;;;;;10.80;2.88;;;37.40;77.20;;;;;;5095022;28;20024;-67
2022/08/03 12:20:37;;;;;;;14.18;2.60;;;37.30;77.50;;;;;;5094792;28;20016;-68
2022/08/03 12:23:08;;;;;;;15.32;2.60;;;37.10;77.40;;;;;;5095284;28;20023;-68
2022/08/03 12:25:35;;;;;;;16.88;3.10;;;37.10;77.40;;;;;;5095163;28;20024;-72
2022/08/03 12:28:15;;;;;;;21.58;3.30;;;37.30;77.10;;;;;;5094871;28;20040;-71
2022/08/03 12:30:41;;;;;;;15.63;2.70;;;37.20;76.60;;;;;;5085633;28;20070;-69
2022/08/03 12:33:12;;;;;;;15.60;2.70;;;37.10;77.20;;;;;;5090601;28;20027;-69
2022/08/03 12:35:37;;;;;;;11.38;2.65;;;37.30;76.40;;;;;;5094075;28;20032;-69
2022/08/03 12:38:04;;;;;;;15.45;2.60;;;37.20;76.40;;;;;;5090459;28;20033;-66
2022/08/03 12:40:30;;;;;;;15.25;3.25;;;37.00;76.50;;;;;;5074355;28;20108;-67
2022/08/03 12:42:55;;;;;;;13.48;2.58;;;37.00;76.60;;;;;;5074442;28;20063;-68
2022/08/03 12:45:23;;;;;;;15.05;2.63;;;36.80;76.80;;;;;;5073288;28;20374;-70
2022/08/03 12:47:54;;;;;;;12.43;2.75;;;36.40;77.30;;;;;;5088704;28;20035;-69
2022/08/03 12:50:33;;;;;;;;;;;36.10;78.00;;;;;;5094857;28;20048;-69
2022/08/03 12:53:00;;;;;;;20.27;4.30;;;35.80;78.20;;;;;;5094491;28;19900;-68
2022/08/03 12:55:32;;;;;;;57.80;40.13;;;35.60;78.80;;;;;;5094499;28;20028;-69
2022/08/03 12:58:02;;;;;;;50.17;28.92;;;35.00;79.90;;;;;;5093946;28;20090;-69
2022/08/03 13:00:29;;;;;;;14.77;4.43;;;34.70;80.30;;;;;;5094194;28;20039;-68
2022/08/03 13:03:06;;;;;;;21.17;9.70;;;34.60;80.40;;;;;;5094002;28;20073;-66